Time;durP1;ratioP1;P1;durP2;ratioP2;P2;SDS_P1;SDS_P2;PMS_P1;PMS_P2;Temp;Humidity;BMP_temperature;BMP_pressure;BME280_temperature;BME280_humidity;BME280_pressure;Samples;Min_cycle;Max_cycle;Signal;HPM_P1;HPM_P2
2022/03/24 00:01:35;;;;;;;18.35;12.20;;;;;;;3.90;31.34;96666.44;5019364;28;20148;-65
2022/03/24 00:04:00;;;;;;;19.92;12.75;;;;;;;3.79;32.49;96657.53;5015542;28;20070;-65
2022/03/24 00:06:25;;;;;;;20.83;13.13;;;;;;;3.78;32.27;96661.09;5015713;28;20155;-65
2022/03/24 00:08:51;;;;;;;18.75;12.55;;;;;;;3.73;32.24;96662.38;5012763;28;20133;-64
2022/03/24 00:11:17;;;;;;;23.33;12.52;;;;;;;3.63;32.71;96660.41;5014229;28;20066;-64
2022/03/24 00:13:43;;;;;;;20.35;12.48;;;;;;;3.60;32.40;96657.16;5019345;28;20093;-64
2022/03/24 00:16:08;;;;;;;17.50;12.18;;;;;;;3.61;32.65;96658.84;5012041;28;20082;-64
2022/03/24 00:18:34;;;;;;;17.67;12.35;;;;;;;3.53;33.24;96656.72;5020275;28;20106;-64
2022/03/24 00:21:00;;;;;;;17.38;11.05;;;;;;;3.53;32.08;96659.38;5010250;28;20114;-65
2022/03/24 00:23:25;;;;;;;18.60;11.38;;;;;;;3.55;32.32;96654.84;5022381;28;20078;-64
2022/03/24 00:25:51;;;;;;;21.45;11.80;;;;;;;3.43;32.67;96651.25;5008360;28;20590;-64
2022/03/24 00:28:16;;;;;;;19.85;11.52;;;;;;;3.35;32.98;96654.44;5009962;28;20085;-64
2022/03/24 00:30:41;;;;;;;18.92;11.63;;;;;;;3.34;32.70;96658.00;5019734;28;20145;-65
2022/03/24 00:33:07;;;;;;;19.58;11.77;;;;;;;3.32;33.25;96656.41;5020051;28;20110;-65
2022/03/24 00:35:32;;;;;;;20.35;11.40;;;;;;;3.37;32.89;96654.31;5021988;28;20085;-64
2022/03/24 00:37:58;;;;;;;18.90;11.82;;;;;;;3.30;32.86;96652.09;5009141;28;20106;-65
2022/03/24 00:40:23;;;;;;;18.38;12.05;;;;;;;3.24;33.21;96649.06;5021959;28;20116;-64
2022/03/24 00:42:49;;;;;;;22.98;11.52;;;;;;;3.19;33.07;96652.00;5008445;28;20106;-64
2022/03/24 00:45:14;;;;;;;18.35;11.68;;;;;;;3.16;33.91;96647.78;5021268;28;20545;-64
2022/03/24 00:47:40;;;;;;;22.92;12.77;;;;;;;3.15;33.16;96648.75;5009068;28;20100;-65
2022/03/24 00:50:07;;;;;;;21.13;12.55;;;;;;;3.10;33.48;96650.84;5021397;28;20771;-65
2022/03/24 00:52:33;;;;;;;18.67;11.25;;;;;;;3.13;33.68;96645.38;5005727;28;20625;-65
2022/03/24 00:54:58;;;;;;;19.42;11.15;;;;;;;3.21;32.86;96650.13;5010168;28;20089;-65
2022/03/24 00:57:24;;;;;;;19.15;11.27;;;;;;;3.23;32.66;96642.94;5008899;28;20118;-64
2022/03/24 00:59:49;;;;;;;17.38;11.45;;;;;;;3.14;33.04;96641.78;5022235;28;20097;-65
2022/03/24 01:02:16;;;;;;;18.25;11.60;;;;;;;3.10;32.74;96639.50;5008330;28;20106;-65
2022/03/24 01:04:41;;;;;;;18.08;11.10;;;;;;;3.04;32.78;96641.56;5021700;28;20109;-65
2022/03/24 01:07:07;;;;;;;18.17;11.48;;;;;;;3.01;33.13;96633.06;5013096;28;20088;-65
2022/03/24 01:09:32;;;;;;;18.30;11.30;;;;;;;2.90;33.72;96636.44;5036873;28;20593;-64
2022/03/24 01:11:57;;;;;;;17.77;11.75;;;;;;;2.83;33.99;96630.75;5014105;28;20436;-65
2022/03/24 01:14:23;;;;;;;18.48;11.30;;;;;;;2.82;33.44;96634.31;5019620;28;20491;-65
2022/03/24 01:16:51;;;;;;;19.48;11.82;;;;;;;2.73;33.83;96633.13;5021378;28;20328;-65
2022/03/24 01:19:16;;;;;;;16.27;11.70;;;;;;;2.67;33.66;96635.34;5021338;28;20177;-64
2022/03/24 01:21:42;;;;;;;18.13;11.68;;;;;;;2.65;33.76;96628.41;5016760;28;20152;-65
2022/03/24 01:24:08;;;;;;;23.13;12.50;;;;;;;2.69;33.30;96636.09;5021589;28;20085;-65
2022/03/24 01:26:34;;;;;;;20.73;12.20;;;;;;;2.69;33.48;96630.84;5019562;28;20332;-65
2022/03/24 01:29:00;;;;;;;20.05;13.15;;;;;;;2.59;34.13;96623.56;5019560;28;20111;-65
2022/03/24 01:31:25;;;;;;;18.02;12.02;;;;;;;2.62;33.60;96623.34;5012816;28;20117;-65
2022/03/24 01:33:51;;;;;;;19.70;12.15;;;;;;;2.61;33.90;96619.03;5016541;28;20098;-64
2022/03/24 01:36:18;;;;;;;17.83;12.57;;;;;;;2.58;34.18;96619.25;5014197;28;20320;-62
2022/03/24 01:38:43;;;;;;;20.13;11.98;;;;;;;2.59;33.77;96615.66;5006134;28;20189;-64
2022/03/24 01:41:09;;;;;;;18.85;11.90;;;;;;;2.59;34.09;96617.47;5015509;28;20165;-64
2022/03/24 01:43:35;;;;;;;22.33;13.68;;;;;;;2.58;34.22;96616.63;5014022;28;20083;-64
2022/03/24 01:46:00;;;;;;;22.88;12.40;;;;;;;2.65;33.63;96610.00;5016295;28;20130;-64
2022/03/24 01:48:26;;;;;;;22.52;12.93;;;;;;;2.62;33.90;96612.84;5012435;28;20082;-64
2022/03/24 01:50:52;;;;;;;19.00;12.13;;;;;;;2.60;34.18;96612.09;5019461;28;20106;-64
2022/03/24 01:53:18;;;;;;;23.27;13.95;;;;;;;2.56;34.53;96608.00;5035929;28;20529;-64
2022/03/24 01:55:43;;;;;;;22.05;13.70;;;;;;;2.63;33.79;96600.53;5018955;28;20408;-64
2022/03/24 01:58:09;;;;;;;19.80;12.82;;;;;;;2.55;34.14;96610.72;5008469;28;20180;-64
2022/03/24 02:00:34;;;;;;;20.08;12.75;;;;;;;2.52;34.14;96611.78;5019270;28;20251;-64
2022/03/24 02:03:02;;;;;;;20.13;12.60;;;;;;;2.49;34.07;96610.19;5008050;28;20073;-65
2022/03/24 02:05:38;;;;;;;20.88;13.20;;;;;;;2.39;34.27;96615.22;4990589;28;20119;-64
2022/03/24 02:08:04;;;;;;;24.20;13.93;;;;;;;2.37;34.78;96618.88;4992714;28;20810;-64
2022/03/24 02:10:33;;;;;;;22.52;12.93;;;;;;;2.35;34.51;96608.47;5008819;28;20101;-64
2022/03/24 02:12:58;;;;;;;20.25;12.48;;;;;;;2.35;34.41;96613.72;5040088;28;20350;-64
2022/03/24 02:15:27;;;;;;;20.38;12.93;;;;;;;2.32;34.43;96607.84;5014149;28;20089;-64
2022/03/24 02:17:53;;;;;;;21.02;13.57;;;;;;;2.30;34.56;96609.72;5027529;28;20187;-65
2022/03/24 02:20:19;;;;;;;21.17;13.20;;;;;;;2.28;34.66;96615.06;5010379;28;20082;-64
2022/03/24 02:22:45;;;;;;;20.85;12.75;;;;;;;2.30;34.60;96610.56;5040761;28;20133;-64
2022/03/24 02:25:11;;;;;;;24.13;13.13;;;;;;;2.30;34.51;96602.69;5011903;28;20193;-64
2022/03/24 02:27:37;;;;;;;20.95;12.13;;;;;;;2.26;34.73;96603.84;5000651;28;20110;-64
2022/03/24 02:30:03;;;;;;;19.02;12.93;;;;;;;2.19;35.41;96602.56;4988192;28;20122;-64
2022/03/24 02:32:29;;;;;;;20.38;13.95;;;;;;;2.13;35.25;96604.66;4996647;28;20083;-65
2022/03/24 02:34:54;;;;;;;20.80;12.57;;;;;;;2.13;35.05;96609.06;4969857;28;20085;-65
2022/03/24 02:37:22;;;;;;;19.38;12.00;;;;;;;2.16;35.29;96608.00;4999927;28;20364;-65
2022/03/24 02:39:52;;;;;;;20.95;12.32;;;;;;;2.21;34.69;96598.06;5021421;28;20121;-65
2022/03/24 02:42:18;;;;;;;22.33;12.55;;;;;;;2.17;34.52;96597.41;5009606;28;20232;-65
2022/03/24 02:44:45;;;;;;;22.27;12.57;;;;;;;2.20;34.65;96601.59;5026064;28;20191;-64
2022/03/24 02:47:11;;;;;;;18.05;12.93;;;;;;;2.20;34.51;96593.72;5012113;28;20087;-64
2022/03/24 02:49:36;;;;;;;19.77;12.60;;;;;;;2.11;34.46;96601.25;5022037;28;20109;-64
2022/03/24 02:52:02;;;;;;;18.23;11.98;;;;;;;2.08;34.81;96605.88;5013475;28;20105;-64
2022/03/24 02:54:28;;;;;;;17.77;12.00;;;;;;;2.05;34.90;96608.72;4999610;28;20107;-64
2022/03/24 02:56:54;;;;;;;17.15;11.77;;;;;;;2.02;34.60;96607.13;4986473;28;20102;-64
2022/03/24 02:59:19;;;;;;;18.65;11.35;;;;;;;1.98;35.07;96606.47;5004908;28;20598;-64
2022/03/24 03:01:52;;;;;;;19.80;13.05;;;;;;;1.85;35.74;96603.81;4991293;28;20115;-64
2022/03/24 03:04:17;;;;;;;18.25;12.00;;;;;;;1.92;35.02;96603.41;5003317;28;20082;-64
2022/03/24 03:06:43;;;;;;;18.85;12.30;;;;;;;1.95;35.29;96608.47;5010824;28;20098;-64
2022/03/24 03:09:08;;;;;;;19.38;12.82;;;;;;;1.98;35.09;96610.91;5014707;28;20567;-64
2022/03/24 03:11:34;;;;;;;20.48;12.70;;;;;;;1.96;35.21;96608.38;5015444;28;20086;-64
2022/03/24 03:14:00;;;;;;;22.95;13.00;;;;;;;2.04;35.02;96607.84;5023372;28;20102;-64
2022/03/24 03:16:25;;;;;;;22.40;13.25;;;;;;;2.11;35.17;96606.53;5010644;28;20109;-64
2022/03/24 03:18:51;;;;;;;20.65;13.00;;;;;;;2.11;35.01;96606.53;5024190;28;20074;-64
2022/03/24 03:21:17;;;;;;;19.25;12.55;;;;;;;2.14;35.12;96598.44;5010054;28;20132;-64
2022/03/24 03:23:43;;;;;;;22.33;13.23;;;;;;;2.04;35.13;96602.59;5022471;28;20096;-64
2022/03/24 03:26:09;;;;;;;17.75;12.15;;;;;;;1.93;35.72;96613.81;5011143;28;20162;-64
2022/03/24 03:28:35;;;;;;;17.90;12.20;;;;;;;1.88;35.37;96611.47;5021457;28;20577;-64
2022/03/24 03:31:00;;;;;;;17.70;12.05;;;;;;;1.91;35.23;96605.22;5012834;28;20105;-64
2022/03/24 03:33:26;;;;;;;21.50;12.43;;;;;;;2.04;35.10;96604.41;5021347;28;20110;-64
2022/03/24 03:35:52;;;;;;;18.00;12.70;;;;;;;1.95;35.68;96606.69;5019806;28;20150;-64
2022/03/24 03:38:18;;;;;;;19.95;13.32;;;;;;;1.97;35.15;96604.78;5000603;28;20139;-64
2022/03/24 03:40:44;;;;;;;16.60;11.35;;;;;;;2.00;34.99;96606.38;4993720;28;20074;-64
2022/03/24 03:43:11;;;;;;;17.90;11.35;;;;;;;1.95;35.37;96616.34;5031107;28;20354;-64
2022/03/24 03:45:37;;;;;;;18.77;11.68;;;;;;;1.92;34.75;96614.78;5029275;28;20282;-64
2022/03/24 03:48:03;;;;;;;16.33;11.60;;;;;;;1.84;35.07;96615.25;5033760;28;20559;-64
2022/03/24 03:50:29;;;;;;;17.50;11.70;;;;;;;1.78;35.12;96615.66;4991420;28;20107;-64
2022/03/24 03:52:54;;;;;;;16.63;11.25;;;;;;;1.73;34.82;96615.09;4985164;28;20575;-64
2022/03/24 03:55:20;;;;;;;18.67;11.82;;;;;;;1.66;35.17;96612.00;5002602;28;20088;-64
2022/03/24 03:57:45;;;;;;;19.80;12.00;;;;;;;1.71;35.23;96614.34;5002696;28;20579;-64
2022/03/24 04:02:57;;;;;;;19.30;11.48;;;;;;;1.53;35.41;96605.84;5010741;28;20137;-64
2022/03/24 04:05:25;;;;;;;19.75;13.20;;;;;;;1.41;36.38;96604.81;5022253;28;20635;-64
2022/03/24 04:07:51;;;;;;;19.52;11.98;;;;;;;1.34;36.01;96607.84;5014928;28;20623;-64
2022/03/24 04:10:17;;;;;;;20.30;13.05;;;;;;;1.35;36.22;96598.16;5022471;28;20114;-65
2022/03/24 04:12:43;;;;;;;18.95;12.98;;;;;;;1.32;36.69;96598.34;5013803;28;20125;-65
2022/03/24 04:15:09;;;;;;;19.73;12.85;;;;;;;1.31;36.50;96600.16;5022805;28;20081;-65
2022/03/24 04:17:35;;;;;;;21.90;13.52;;;;;;;1.31;36.50;96596.66;5017779;28;20369;-65
2022/03/24 04:20:00;;;;;;;24.77;13.77;;;;;;;1.34;36.40;96601.72;5022953;28;20135;-65
2022/03/24 04:22:26;;;;;;;24.63;13.65;;;;;;;1.34;36.13;96592.09;5009224;28;20156;-65
2022/03/24 04:24:51;;;;;;;25.13;13.70;;;;;;;1.36;36.13;96591.97;5020297;28;20474;-65
2022/03/24 04:27:16;;;;;;;20.85;14.00;;;;;;;1.34;36.43;96597.34;5017001;28;20376;-64
2022/03/24 04:29:42;;;;;;;23.30;14.45;;;;;;;1.40;35.46;96596.09;5020710;28;20561;-64
2022/03/24 04:32:08;;;;;;;22.58;14.15;;;;;;;1.49;35.73;96603.41;5021981;28;20066;-65
2022/03/24 04:34:33;;;;;;;25.98;14.27;;;;;;;1.56;35.17;96598.63;5022067;28;20098;-65
2022/03/24 04:36:58;;;;;;;25.42;14.05;;;;;;;1.61;35.38;96596.53;5007547;28;20160;-65
2022/03/24 04:39:24;;;;;;;23.30;14.25;;;;;;;1.62;35.50;96595.63;5013621;28;20097;-64
2022/03/24 04:41:49;;;;;;;22.27;12.38;;;;;;;1.66;35.41;96592.81;5014523;28;20110;-64
2022/03/24 04:44:15;;;;;;;19.92;13.40;;;;;;;1.58;35.35;96594.13;5018674;28;20093;-65
2022/03/24 04:46:40;;;;;;;19.58;12.77;;;;;;;1.49;35.56;96603.41;5012874;28;20140;-64
2022/03/24 04:49:05;;;;;;;19.42;12.32;;;;;;;1.46;35.53;96589.59;5019380;28;20102;-64
2022/03/24 04:51:31;;;;;;;19.95;12.90;;;;;;;1.45;35.53;96595.81;5017828;28;20765;-64
2022/03/24 04:53:56;;;;;;;19.88;12.38;;;;;;;1.48;34.62;96595.63;5012898;28;20124;-64
2022/03/24 04:56:22;;;;;;;20.35;12.75;;;;;;;1.41;34.95;96596.94;5018193;28;20077;-64
2022/03/24 04:58:48;;;;;;;20.98;11.95;;;;;;;1.39;34.76;96590.97;5014658;28;20724;-64
2022/03/24 05:01:13;;;;;;;20.35;12.60;;;;;;;1.32;34.64;96588.69;5003598;28;20109;-64
2022/03/24 05:03:42;;;;;;;20.13;12.50;;;;;;;1.28;35.13;96597.72;4996518;28;20456;-64
2022/03/24 05:06:08;;;;;;;18.80;12.45;;;;;;;1.14;35.45;96595.94;4994874;28;20106;-64
2022/03/24 05:08:33;;;;;;;20.48;12.77;;;;;;;1.07;35.39;96598.09;4996745;28;20203;-64
2022/03/24 05:10:59;;;;;;;20.08;12.48;;;;;;;0.96;35.96;96598.75;5000438;28;20725;-64
2022/03/24 05:13:24;;;;;;;20.05;12.70;;;;;;;0.90;35.94;96595.66;4993074;28;20129;-64
2022/03/24 05:15:49;;;;;;;20.30;12.90;;;;;;;0.82;35.49;96599.56;4999096;28;20156;-64
2022/03/24 05:18:15;;;;;;;20.88;13.18;;;;;;;0.72;36.33;96594.03;5001359;28;20121;-64
2022/03/24 05:20:40;;;;;;;18.30;12.93;;;;;;;0.80;36.00;96600.59;5003152;28;20621;-64
2022/03/24 05:23:06;;;;;;;21.08;14.02;;;;;;;0.70;36.89;96606.41;5013670;28;20070;-64
2022/03/24 05:25:31;;;;;;;20.88;13.15;;;;;;;0.67;37.13;96601.34;5023707;28;20116;-64
2022/03/24 05:27:57;;;;;;;20.30;13.75;;;;;;;0.68;36.20;96603.03;5014563;28;20164;-64
2022/03/24 05:30:22;;;;;;;23.83;14.57;;;;;;;0.75;36.71;96606.13;4997657;28;20110;-64
2022/03/24 05:32:48;;;;;;;28.55;17.20;;;;;;;0.70;37.31;96608.19;4994495;28;20071;-64
2022/03/24 05:35:13;;;;;;;27.58;16.25;;;;;;;0.81;36.33;96610.16;4989826;28;20462;-64
2022/03/24 05:37:39;;;;;;;28.08;17.23;;;;;;;0.87;37.02;96608.94;4998656;28;20527;-64
2022/03/24 05:40:05;;;;;;;27.38;17.65;;;;;;;0.94;37.11;96608.50;4996692;28;20082;-64
2022/03/24 05:42:30;;;;;;;29.45;18.45;;;;;;;1.06;37.20;96604.25;4988116;28;20140;-64
2022/03/24 05:44:56;;;;;;;31.38;18.88;;;;;;;1.19;37.07;96608.78;5001389;28;20098;-65
2022/03/24 05:47:21;;;;;;;28.98;17.83;;;;;;;1.21;37.41;96609.50;4999627;28;20459;-64
2022/03/24 05:49:46;;;;;;;26.52;17.13;;;;;;;1.20;37.53;96607.84;5001166;28;20310;-64
2022/03/24 05:52:12;;;;;;;26.77;17.30;;;;;;;1.31;36.70;96610.66;4988993;28;20089;-64
2022/03/24 05:54:37;;;;;;;24.60;16.67;;;;;;;1.35;36.73;96609.50;4981983;28;20500;-64
2022/03/24 05:57:03;;;;;;;25.67;17.08;;;;;;;1.44;36.80;96607.25;4995180;28;20623;-64
2022/03/24 05:59:29;;;;;;;25.92;16.92;;;;;;;1.44;36.73;96617.75;4999454;28;20110;-64
2022/03/24 06:01:54;;;;;;;26.55;17.23;;;;;;;1.51;36.38;96616.44;4987032;28;20110;-64
2022/03/24 06:04:19;;;;;;;27.55;17.27;;;;;;;1.65;36.07;96607.72;4988223;28;20083;-64
2022/03/24 06:06:45;;;;;;;31.23;18.98;;;;;;;1.77;36.05;96618.38;5029571;28;20152;-64
2022/03/24 06:09:10;;;;;;;27.48;17.13;;;;;;;1.87;36.55;96615.06;5011571;28;20106;-65
2022/03/24 06:11:36;;;;;;;27.05;17.05;;;;;;;2.01;36.08;96619.41;4992263;28;20087;-64
2022/03/24 06:14:03;;;;;;;25.05;16.70;;;;;;;2.17;36.00;96621.03;4985451;28;20131;-64
2022/03/24 06:16:28;;;;;;;27.85;17.42;;;;;;;2.25;35.78;96624.00;5000766;28;20593;-64
2022/03/24 06:18:54;;;;;;;29.38;17.85;;;;;;;2.36;35.86;96625.94;5001327;28;20518;-64
2022/03/24 06:21:19;;;;;;;30.02;17.00;;;;;;;2.51;35.48;96617.97;5000453;28;20603;-63
2022/03/24 06:23:45;;;;;;;29.20;17.50;;;;;;;2.62;36.14;96620.72;5001239;28;20149;-64
2022/03/24 06:26:10;;;;;;;29.33;19.25;;;;;;;2.73;35.44;96616.53;4993328;28;20189;-64
2022/03/24 06:28:36;;;;;;;29.30;18.60;;;;;;;2.91;35.85;96623.19;4987504;28;20074;-65
2022/03/24 06:31:02;;;;;;;29.13;19.38;;;;;;;3.10;35.88;96618.44;5000854;28;20182;-65
2022/03/24 06:33:27;;;;;;;29.38;19.08;;;;;;;3.23;35.49;96614.00;5015492;28;20413;-64
2022/03/24 06:35:53;;;;;;;31.67;19.00;;;;;;;3.41;35.79;96622.38;5025554;28;20074;-64
2022/03/24 06:38:18;;;;;;;32.58;19.52;;;;;;;3.59;35.78;96622.09;4992900;28;20172;-64
2022/03/24 06:40:44;;;;;;;31.02;20.08;;;;;;;3.73;35.73;96618.47;4987128;28;20087;-64
2022/03/24 06:43:09;;;;;;;27.23;18.95;;;;;;;3.90;35.12;96619.03;4994826;28;20086;-64
2022/03/24 06:45:35;;;;;;;31.17;20.10;;;;;;;4.07;35.36;96617.81;4996447;28;20118;-65
2022/03/24 06:48:01;;;;;;;30.42;19.98;;;;;;;4.28;36.10;96612.75;5000365;28;20086;-64
2022/03/24 06:50:26;;;;;;;31.08;20.38;;;;;;;4.41;36.20;96610.03;5000380;28;20614;-64
2022/03/24 06:52:52;;;;;;;33.25;20.65;;;;;;;4.63;35.74;96613.69;4993563;28;20138;-64
2022/03/24 06:55:17;;;;;;;32.58;20.60;;;;;;;4.81;35.57;96611.47;5000457;28;20109;-64
2022/03/24 06:57:43;;;;;;;30.83;20.10;;;;;;;5.03;35.60;96609.00;5012389;28;20108;-64
2022/03/24 07:00:13;;;;;;;31.30;19.75;;;;;;;5.26;35.56;96615.13;5013847;28;20180;-64
2022/03/24 07:02:38;;;;;;;28.80;19.40;;;;;;;5.51;35.17;96613.19;5030024;28;20106;-64
2022/03/24 07:05:04;;;;;;;34.03;20.67;;;;;;;5.73;34.97;96609.72;5039704;28;20592;-65
2022/03/24 07:07:29;;;;;;;31.30;20.52;;;;;;;6.05;34.65;96609.88;5015824;28;20239;-64
2022/03/24 07:09:55;;;;;;;30.20;19.88;;;;;;;6.23;35.22;96607.53;5033996;28;20179;-65
2022/03/24 07:12:20;;;;;;;32.13;20.88;;;;;;;6.45;34.76;96606.59;5033898;28;20600;-65
2022/03/24 07:14:46;;;;;;;30.27;19.83;;;;;;;6.69;34.55;96604.69;5019070;28;20109;-65
2022/03/24 07:17:11;;;;;;;29.52;20.23;;;;;;;6.92;34.46;96610.69;5022630;28;20655;-65
2022/03/24 07:19:37;;;;;;;30.60;20.58;;;;;;;7.15;34.35;96605.25;5025785;28;20477;-65
2022/03/24 07:22:03;;;;;;;31.90;19.38;;;;;;;7.43;34.03;96610.81;5002972;28;20117;-65
2022/03/24 07:24:28;;;;;;;34.97;21.63;;;;;;;7.71;33.09;96607.53;4993496;28;20486;-65
2022/03/24 07:26:53;;;;;;;39.60;22.85;;;;;;;8.11;32.13;96608.47;4998270;28;20114;-65
2022/03/24 07:29:19;;;;;;;36.08;23.27;;;;;;;8.32;30.89;96613.66;4991306;28;20502;-65
2022/03/24 07:31:44;;;;;;;37.63;22.17;;;;;;;8.28;30.40;96610.47;5015304;28;20083;-65
2022/03/24 07:34:10;;;;;;;39.05;24.52;;;;;;;8.76;27.74;96599.09;5011483;28;20122;-65
2022/03/24 07:36:35;;;;;;;38.20;23.40;;;;;;;8.45;28.35;96602.78;5011590;28;20121;-65
2022/03/24 07:39:01;;;;;;;37.80;23.02;;;;;;;8.70;28.12;96608.47;5013059;28;20081;-65
2022/03/24 07:41:27;;;;;;;36.55;22.95;;;;;;;8.56;27.69;96607.94;5014008;28;20136;-65
2022/03/24 07:43:52;;;;;;;35.83;23.05;;;;;;;9.00;27.65;96606.63;5017459;28;20082;-64
2022/03/24 07:46:17;;;;;;;36.88;22.05;;;;;;;8.60;28.13;96615.63;5018352;28;20113;-64
2022/03/24 07:48:46;;;;;;;36.05;21.33;;;;;;;8.40;27.61;96615.63;5009282;28;20089;-65
2022/03/24 07:51:12;;;;;;;36.78;20.75;;;;;;;8.01;28.32;96622.56;5017529;28;20467;-64
2022/03/24 07:53:37;;;;;;;35.47;21.85;;;;;;;8.14;27.44;96629.44;5021563;28;20102;-65
2022/03/24 07:56:03;;;;;;;33.95;20.75;;;;;;;8.53;27.83;96625.94;5017015;28;20078;-65
2022/03/24 07:58:29;;;;;;;40.28;22.42;;;;;;;8.34;28.45;96627.63;5013509;28;20299;-65
2022/03/24 08:00:57;;;;;;;38.85;23.42;;;;;;;8.81;27.81;96624.25;5018315;28;20142;-65
2022/03/24 08:03:22;;;;;;;41.75;23.85;;;;;;;8.94;26.79;96626.59;5022604;28;20583;-65
2022/03/24 08:05:48;;;;;;;31.10;20.35;;;;;;;8.99;27.36;96622.72;5020861;28;20098;-65
2022/03/24 08:08:14;;;;;;;34.35;20.38;;;;;;;9.57;25.45;96624.34;5011565;28;20086;-65
2022/03/24 08:10:44;;;;;;;33.03;22.15;;;;;;;9.39;26.15;96628.75;5018290;28;20113;-65
2022/03/24 08:13:10;;;;;;;32.22;21.02;;;;;;;9.20;25.90;96627.84;5003509;28;20156;-65
2022/03/24 08:15:36;;;;;;;30.98;20.42;;;;;;;9.07;27.32;96622.84;5011665;28;20085;-65
2022/03/24 08:18:04;;;;;;;34.33;20.58;;;;;;;9.65;25.49;96628.09;5016924;28;20097;-65
2022/03/24 08:20:29;;;;;;;31.90;20.40;;;;;;;9.57;25.67;96631.47;5012289;28;20320;-65
2022/03/24 08:22:55;;;;;;;33.40;19.85;;;;;;;9.69;25.11;96629.47;5018745;28;20342;-65
2022/03/24 08:25:20;;;;;;;32.97;20.23;;;;;;;9.39;26.23;96629.56;5007368;28;20114;-65
2022/03/24 08:27:46;;;;;;;36.85;21.55;;;;;;;9.87;24.81;96632.19;4985957;28;20156;-65
2022/03/24 08:30:12;;;;;;;38.30;22.13;;;;;;;10.09;24.51;96627.44;4988326;28;20601;-65
2022/03/24 08:32:38;;;;;;;38.85;22.27;;;;;;;10.44;24.19;96625.78;4989338;28;20464;-65
2022/03/24 08:35:04;;;;;;;35.75;21.63;;;;;;;10.35;24.55;96634.69;4986844;28;20097;-65
2022/03/24 08:37:30;;;;;;;38.10;23.02;;;;;;;10.34;24.99;96633.84;4986845;28;20491;-65
2022/03/24 08:39:55;;;;;;;34.97;22.38;;;;;;;10.30;25.61;96642.31;4996947;28;20083;-65
2022/03/24 08:42:20;;;;;;;39.95;22.88;;;;;;;10.27;24.70;96637.28;4991011;28;20159;-66
2022/03/24 08:44:46;;;;;;;36.53;22.55;;;;;;;10.46;27.01;96630.97;4981130;28;20596;-63
2022/03/24 08:47:11;;;;;;;38.38;22.23;;;;;;;10.60;25.97;96633.09;4994963;28;20820;-64
2022/03/24 08:49:37;;;;;;;41.50;21.65;;;;;;;10.43;25.19;96633.94;5016063;28;20113;-66
2022/03/24 08:52:03;;;;;;;42.92;22.20;;;;;;;10.68;24.63;96637.66;5002261;28;20136;-65
2022/03/24 08:54:28;;;;;;;40.03;23.77;;;;;;;10.22;25.42;96643.06;4991540;28;20151;-66
2022/03/24 08:56:53;;;;;;;38.03;22.52;;;;;;;10.40;26.07;96637.72;4981651;28;20110;-67
2022/03/24 08:59:19;;;;;;;33.08;20.50;;;;;;;9.77;26.47;96639.38;4996956;28;20094;-67
2022/03/24 09:01:44;;;;;;;42.95;21.35;;;;;;;9.72;26.62;96645.13;4993721;28;20345;-66
2022/03/24 09:04:10;;;;;;;39.25;23.92;;;;;;;10.57;24.58;96641.38;4994661;28;20317;-66
2022/03/24 09:06:39;;;;;;;31.98;19.95;;;;;;;10.65;24.81;96645.13;5006370;28;20204;-67
2022/03/24 09:09:05;;;;;;;40.38;24.70;;;;;;;10.55;24.80;96646.06;5007850;28;20112;-67
2022/03/24 09:11:30;;;;;;;39.17;23.38;;;;;;;11.07;24.37;96644.44;5003183;28;20173;-66
2022/03/24 09:13:56;;;;;;;35.53;22.17;;;;;;;11.17;24.59;96655.03;5011639;28;20108;-67
2022/03/24 09:16:21;;;;;;;38.00;23.48;;;;;;;11.15;24.03;96648.19;5005792;28;20085;-67
2022/03/24 09:18:47;;;;;;;34.70;22.70;;;;;;;10.75;24.79;96653.88;5017107;28;20450;-67
2022/03/24 09:21:13;;;;;;;38.35;22.50;;;;;;;10.43;26.75;96652.56;5004445;28;20572;-66
2022/03/24 09:23:38;;;;;;;34.78;22.95;;;;;;;10.63;25.72;96647.94;5014915;28;20095;-67
2022/03/24 09:26:04;;;;;;;29.85;20.48;;;;;;;10.56;26.37;96650.38;5012840;28;20113;-66
2022/03/24 09:28:29;;;;;;;34.75;23.80;;;;;;;11.20;24.77;96653.88;5009954;28;20141;-65
2022/03/24 09:30:55;;;;;;;37.05;24.58;;;;;;;11.50;24.63;96657.88;5018631;28;20101;-67
2022/03/24 09:33:21;;;;;;;36.92;24.20;;;;;;;11.47;24.27;96652.91;5017047;28;20300;-67
2022/03/24 09:35:47;;;;;;;34.78;22.88;;;;;;;11.68;23.72;96649.00;5007217;28;20550;-66
2022/03/24 09:38:13;;;;;;;28.27;18.00;;;;;;;11.11;24.37;96653.84;5012835;28;20112;-67
2022/03/24 09:40:40;;;;;;;40.72;22.63;;;;;;;11.35;24.53;96652.31;5004906;28;20089;-67
2022/03/24 09:43:05;;;;;;;24.70;13.60;;;;;;;10.64;23.00;96654.91;5007742;28;20081;-66
2022/03/24 09:45:31;;;;;;;30.45;19.02;;;;;;;10.85;23.87;96654.59;5012037;28;20101;-67
2022/03/24 09:47:56;;;;;;;23.13;14.48;;;;;;;10.79;23.92;96652.56;5017512;28;20135;-66
2022/03/24 09:50:22;;;;;;;29.88;18.98;;;;;;;10.91;21.86;96660.31;5011574;28;20120;-66
2022/03/24 09:52:47;;;;;;;29.27;19.05;;;;;;;11.02;22.96;96662.75;5008403;28;20081;-65
2022/03/24 09:55:13;;;;;;;27.65;18.13;;;;;;;11.48;23.30;96657.22;5002976;28;20599;-66
2022/03/24 09:57:41;;;;;;;27.20;13.25;;;;;;;10.98;23.06;96662.19;5016116;28;20307;-66
2022/03/24 10:00:07;;;;;;;30.27;20.23;;;;;;;10.90;24.22;96656.81;5002804;28;20542;-65
2022/03/24 10:02:32;;;;;;;30.98;20.02;;;;;;;11.29;21.98;96663.59;5007525;28;20133;-65
2022/03/24 10:05:01;;;;;;;28.05;18.63;;;;;;;11.67;23.41;96659.81;5009055;28;20108;-65
2022/03/24 10:07:27;;;;;;;24.73;14.77;;;;;;;10.86;23.27;96666.09;5016068;28;20090;-63
2022/03/24 10:09:55;;;;;;;29.08;18.98;;;;;;;11.34;21.28;96655.13;5011290;28;20577;-71
2022/03/24 10:12:36;;;;;;;28.33;18.65;;;;;;;11.88;22.37;96654.91;5017735;28;20095;-71
2022/03/24 10:15:06;;;;;;;27.77;17.90;;;;;;;12.34;20.39;96653.72;5006231;28;20106;-71
2022/03/24 10:17:31;;;;;;;28.73;18.52;;;;;;;12.67;19.87;96651.13;5017378;28;20155;-71
2022/03/24 10:20:07;;;;;;;26.63;17.48;;;;;;;12.87;20.51;96660.63;5019879;28;20109;-71
2022/03/24 10:22:33;;;;;;;26.98;16.58;;;;;;;12.93;20.94;96649.28;5016762;28;20100;-71
2022/03/24 10:24:58;;;;;;;25.83;17.73;;;;;;;12.70;19.45;96647.28;5004199;28;20113;-71
2022/03/24 10:27:28;;;;;;;26.65;18.30;;;;;;;13.01;18.47;96651.13;5016563;28;20518;-71
2022/03/24 10:29:55;;;;;;;23.17;16.42;;;;;;;12.20;19.57;96651.72;5020460;28;20198;-71
2022/03/24 10:32:21;;;;;;;26.33;17.80;;;;;;;12.14;19.39;96662.03;5019344;28;20407;-71
2022/03/24 10:34:48;;;;;;;26.92;17.67;;;;;;;12.83;21.54;96649.44;5018773;28;20215;-72
2022/03/24 10:37:19;;;;;;;26.75;18.38;;;;;;;13.14;19.75;96643.44;5013738;28;20203;-71
2022/03/24 10:40:03;;;;;;;24.25;16.92;;;;;;;12.52;20.20;96652.78;5012458;28;20622;-71
2022/03/24 10:42:30;;;;;;;27.48;16.27;;;;;;;12.40;19.62;96645.06;5019371;28;20301;-71
2022/03/24 10:45:20;;;;;;;21.05;14.18;;;;;;;12.01;21.10;96651.78;5020377;28;20566;-70
2022/03/24 10:48:00;;;;;;;25.85;18.05;;;;;;;12.69;19.16;96647.44;5022276;28;20092;-71
2022/03/24 10:50:40;;;;;;;22.77;16.63;;;;;;;12.84;20.01;96648.44;5021087;28;20106;-70
2022/03/24 10:53:08;;;;;;;25.55;17.75;;;;;;;13.30;19.58;96634.53;5023686;28;20153;-71
2022/03/24 10:55:43;;;;;;;24.38;17.88;;;;;;;13.53;19.12;96641.03;5024108;28;20078;-71
2022/03/24 10:58:30;;;;;;;25.52;17.38;;;;;;;13.63;19.53;96647.00;5023557;28;20405;-71
2022/03/24 11:00:58;;;;;;;25.38;17.80;;;;;;;13.00;21.03;96647.63;5022771;28;20103;-71
2022/03/24 11:03:23;;;;;;;26.25;16.70;;;;;;;13.21;18.55;96640.94;5022556;28;20086;-71
2022/03/24 11:05:49;;;;;;;25.42;18.25;;;;;;;13.55;18.80;96645.19;5024059;28;20108;-71
2022/03/24 11:08:18;;;;;;;30.40;19.08;;;;;;;13.83;17.54;96638.56;5011573;28;20105;-71
2022/03/24 11:10:48;;;;;;;30.40;19.48;;;;;;;14.38;18.25;96641.31;5013798;28;20697;-71
2022/03/24 11:13:26;;;;;;;28.60;18.00;;;;;;;14.06;19.64;96640.50;5019562;28;20099;-71
2022/03/24 11:15:52;;;;;;;22.05;16.42;;;;;;;13.56;21.36;96643.34;5017327;28;20071;-71
2022/03/24 11:18:20;;;;;;;25.10;18.25;;;;;;;13.94;18.77;96643.56;5013836;28;20166;-71
2022/03/24 11:20:46;;;;;;;26.20;19.13;;;;;;;14.38;17.18;96637.81;5003791;28;20086;-71
2022/03/24 11:23:20;;;;;;;24.65;17.33;;;;;;;13.55;19.80;96645.19;5023735;28;20075;-70